Time;durP1;ratioP1;P1;durP2;ratioP2;P2;SDS_P1;SDS_P2;PMS_P1;PMS_P2;Temp;Humidity;BMP_temperature;BMP_pressure;BME280_temperature;BME280_humidity;BME280_pressure;Samples;Min_cycle;Max_cycle;Signal;HPM_P1;HPM_P2
2022/02/20 00:01:11;;;;;;;7.47;3.75;;;;;;;2.17;60.73;97790.10;1726996;83;21124;-63
2022/02/20 00:03:37;;;;;;;6.97;3.62;;;;;;;2.17;60.85;97792.75;1722769;82;20845;-61
2022/02/20 00:06:04;;;;;;;6.60;3.92;;;;;;;2.17;60.92;97788.78;1726850;83;20988;-63
2022/02/20 00:08:31;;;;;;;8.98;3.35;;;;;;;2.18;60.89;97793.04;1722774;82;20978;-61
2022/02/20 00:10:58;;;;;;;8.18;3.72;;;;;;;2.17;60.94;97798.03;1693802;84;21445;-66
2022/02/20 00:13:25;;;;;;;9.38;3.90;;;;;;;2.17;61.02;97793.29;1756220;81;21091;-66
2022/02/20 00:15:52;;;;;;;8.18;3.92;;;;;;;2.15;61.30;97800.12;1756156;81;20893;-65
2022/02/20 00:18:18;;;;;;;10.55;4.03;;;;;;;2.14;61.26;97791.13;1756209;81;20888;-63
2022/02/20 00:20:46;;;;;;;8.08;4.12;;;;;;;2.14;61.24;97785.84;1756308;81;21420;-66
2022/02/20 00:23:15;;;;;;;7.83;4.03;;;;;;;2.14;61.35;97784.52;1756138;81;20975;-65
2022/02/20 00:25:42;;;;;;;8.40;4.03;;;;;;;2.12;61.47;97778.13;1756468;81;21102;-67
2022/02/20 00:28:12;;;;;;;9.18;4.10;;;;;;;2.10;61.48;97782.86;1756000;81;21386;-66
2022/02/20 00:30:40;;;;;;;9.03;4.00;;;;;;;2.11;61.50;97799.52;1756314;81;20991;-64
2022/02/20 00:33:07;;;;;;;7.83;3.45;;;;;;;2.13;61.49;97794.79;1756383;81;21412;-62
2022/02/20 00:35:34;;;;;;;12.07;4.12;;;;;;;2.14;61.44;97793.25;1756128;81;20916;-62
2022/02/20 00:38:05;;;;;;;7.05;3.52;;;;;;;2.17;61.41;97797.25;1756201;81;21134;-65
2022/02/20 00:40:32;;;;;;;7.08;3.62;;;;;;;2.18;61.41;97791.72;1757404;81;20932;-65
2022/02/20 00:42:59;;;;;;;7.22;3.90;;;;;;;2.18;61.42;97785.11;1758628;81;20884;-61
2022/02/20 00:45:29;;;;;;;10.38;3.90;;;;;;;2.18;61.59;97793.04;1758580;81;20861;-62
2022/02/20 00:47:56;;;;;;;8.55;3.83;;;;;;;2.17;61.66;97794.06;1758630;81;20880;-64
2022/02/20 00:50:24;;;;;;;8.50;3.98;;;;;;;2.14;61.71;97793.25;1758471;81;21091;-66
2022/02/20 00:52:51;;;;;;;11.33;3.90;;;;;;;2.12;61.76;97787.38;1758807;81;20975;-61
2022/02/20 00:55:17;;;;;;;8.63;3.98;;;;;;;2.13;61.86;97782.90;1758652;81;20876;-62
2022/02/20 00:57:44;;;;;;;11.00;4.25;;;;;;;2.12;61.95;97787.38;1758670;81;20923;-62
2022/02/20 01:00:12;;;;;;;8.05;3.90;;;;;;;2.13;62.04;97785.55;1758901;81;21562;-62
2022/02/20 01:02:39;;;;;;;8.08;3.90;;;;;;;2.12;62.05;97793.98;1758772;81;21848;-61
2022/02/20 01:05:07;;;;;;;9.98;4.58;;;;;;;2.11;62.14;97787.12;1758717;81;20872;-63
2022/02/20 01:07:35;;;;;;;10.63;4.25;;;;;;;2.08;62.25;97784.95;1758763;81;21314;-61
2022/02/20 01:10:04;;;;;;;8.83;3.92;;;;;;;2.07;62.31;97787.33;1759004;81;20924;-62
2022/02/20 01:12:34;;;;;;;9.80;4.00;;;;;;;2.05;62.33;97792.83;1758814;81;21043;-66
2022/02/20 01:15:07;;;;;;;11.05;4.08;;;;;;;2.03;62.66;97788.31;1758768;81;21518;-66
2022/02/20 01:17:34;;;;;;;11.78;4.28;;;;;;;2.02;62.62;97788.56;1758615;81;20924;-66
2022/02/20 01:20:01;;;;;;;7.83;4.20;;;;;;;2.00;62.73;97788.01;1758859;81;21549;-66
2022/02/20 01:22:28;;;;;;;10.95;3.83;;;;;;;1.97;62.89;97789.28;1758752;81;20884;-62
2022/02/20 01:24:55;;;;;;;6.67;3.85;;;;;;;1.94;62.98;97796.88;1758779;81;20868;-63
2022/02/20 01:27:23;;;;;;;6.33;3.67;;;;;;;1.92;63.04;97800.28;1758948;81;21640;-62
2022/02/20 01:29:50;;;;;;;8.25;4.33;;;;;;;1.89;63.22;97796.78;1758677;81;20916;-64
2022/02/20 01:32:18;;;;;;;10.58;4.42;;;;;;;1.86;63.19;97807.85;1758925;81;20900;-66
2022/02/20 01:34:45;;;;;;;12.37;4.70;;;;;;;1.85;63.23;97803.59;1758737;81;20892;-64
2022/02/20 01:37:11;;;;;;;7.97;4.03;;;;;;;1.82;63.26;97808.02;1759015;81;20982;-66
2022/02/20 01:39:38;;;;;;;7.87;4.30;;;;;;;1.80;63.49;97804.83;1758636;81;21873;-61
2022/02/20 01:42:09;;;;;;;11.10;4.78;;;;;;;1.78;63.38;97813.52;1755803;81;20849;-61
2022/02/20 01:44:36;;;;;;;11.20;4.37;;;;;;;1.78;63.23;97807.72;1756238;81;20876;-65
2022/02/20 01:47:08;;;;;;;9.98;4.08;;;;;;;1.80;63.19;97803.50;1756212;81;21519;-65
2022/02/20 01:49:43;;;;;;;9.93;4.20;;;;;;;1.80;63.21;97806.95;1756251;81;20996;-65
2022/02/20 01:52:12;;;;;;;11.65;4.65;;;;;;;1.79;63.07;97809.84;1756231;81;21106;-65
2022/02/20 01:54:39;;;;;;;7.20;4.05;;;;;;;1.77;63.01;97808.74;1756179;81;20912;-63
2022/02/20 01:57:05;;;;;;;9.95;4.50;;;;;;;1.77;63.00;97809.25;1756525;81;20928;-66
2022/02/20 01:59:43;;;;;;;10.18;4.25;;;;;;;1.76;62.93;97801.07;1753596;81;21428;-65
2022/02/20 02:02:19;;;;;;;9.43;4.47;;;;;;;1.75;62.92;97808.70;1756507;81;21775;-62
2022/02/20 02:04:48;;;;;;;8.83;3.72;;;;;;;1.71;63.21;97804.94;1754868;81;21128;-66
2022/02/20 02:07:15;;;;;;;9.35;4.53;;;;;;;1.69;63.01;97807.02;1756145;81;20913;-65
2022/02/20 02:09:46;;;;;;;7.70;3.90;;;;;;;1.70;62.82;97819.17;1755365;81;20916;-62
2022/02/20 02:12:15;;;;;;;10.50;4.53;;;;;;;1.70;62.72;97805.97;1752812;81;20856;-67
2022/02/20 02:14:58;;;;;;;11.40;4.45;;;;;;;1.71;62.59;97804.94;1753257;81;20889;-64
2022/02/20 02:17:40;;;;;;;8.70;4.53;;;;;;;1.70;62.55;97807.28;1756325;81;21115;-65
2022/02/20 02:20:14;;;;;;;8.10;4.10;;;;;;;1.71;62.46;97807.58;1754717;81;21507;-64
2022/02/20 02:22:43;;;;;;;9.38;4.62;;;;;;;1.69;62.41;97808.34;1751703;81;20940;-63
2022/02/20 02:25:11;;;;;;;9.05;4.15;;;;;;;1.68;62.41;97806.73;1754357;81;20904;-65
2022/02/20 02:27:46;;;;;;;11.63;4.28;;;;;;;1.64;62.50;97810.38;1754398;81;20875;-63
2022/02/20 02:30:14;;;;;;;11.03;4.10;;;;;;;1.62;62.42;97801.90;1752463;81;21123;-66
2022/02/20 02:32:41;;;;;;;10.70;4.62;;;;;;;1.61;62.58;97804.75;1756314;81;21006;-62
2022/02/20 02:35:11;;;;;;;10.72;3.67;;;;;;;1.59;62.50;97798.91;1756504;81;20939;-65
2022/02/20 02:37:39;;;;;;;7.80;3.80;;;;;;;1.57;62.46;97803.63;1756179;81;21012;-67
2022/02/20 02:40:08;;;;;;;11.48;3.77;;;;;;;1.56;62.59;97811.26;1756209;81;20897;-65
2022/02/20 02:42:34;;;;;;;8.55;4.47;;;;;;;1.53;62.70;97800.66;1756200;81;21132;-64
2022/02/20 02:45:04;;;;;;;8.70;4.17;;;;;;;1.50;62.66;97797.70;1756211;81;20955;-63
2022/02/20 02:47:31;;;;;;;12.18;4.30;;;;;;;1.47;62.70;97796.84;1756273;81;21355;-65
2022/02/20 02:49:58;;;;;;;10.53;4.15;;;;;;;1.46;62.50;97791.30;1756235;81;20927;-64
2022/02/20 02:52:24;;;;;;;11.95;4.00;;;;;;;1.43;62.37;97791.25;1756215;81;20931;-67
2022/02/20 02:54:51;;;;;;;10.13;3.90;;;;;;;1.44;62.25;97788.10;1756478;81;21852;-60
2022/02/20 02:57:18;;;;;;;9.03;3.85;;;;;;;1.44;62.21;97792.06;1756217;81;20849;-61
2022/02/20 02:59:45;;;;;;;7.95;4.12;;;;;;;1.44;62.11;97788.10;1756270;81;20908;-66
2022/02/20 03:02:12;;;;;;;9.40;3.85;;;;;;;1.43;62.27;97789.13;1756223;81;20991;-65
2022/02/20 03:04:38;;;;;;;9.98;3.72;;;;;;;1.41;62.10;97785.92;1756320;81;21392;-63
2022/02/20 03:07:05;;;;;;;9.03;3.67;;;;;;;1.40;62.10;97785.13;1756289;81;21097;-66
2022/02/20 03:09:35;;;;;;;7.72;3.83;;;;;;;1.39;62.12;97786.95;1756065;81;20893;-62
2022/02/20 03:12:02;;;;;;;9.48;4.15;;;;;;;1.39;61.97;97794.06;1756271;81;20900;-65
2022/02/20 03:14:30;;;;;;;7.20;3.42;;;;;;;1.38;62.01;97788.01;1756357;81;20853;-61
2022/02/20 03:19:39;;;;;;;10.75;4.03;;;;;;;1.35;62.05;97795.58;1756153;81;21109;-63
2022/02/20 03:22:05;;;;;;;8.15;4.10;;;;;;;1.33;61.99;97802.94;1756199;81;20880;-67
2022/02/20 03:24:32;;;;;;;10.05;4.42;;;;;;;1.31;61.93;97800.55;1756262;81;20972;-67
2022/02/20 03:26:58;;;;;;;8.25;4.10;;;;;;;1.29;62.10;97796.02;1756509;81;20880;-65
2022/02/20 03:29:27;;;;;;;10.03;4.08;;;;;;;1.28;62.07;97802.84;1755212;81;20872;-67
2022/02/20 03:31:55;;;;;;;8.35;4.10;;;;;;;1.26;61.86;97807.55;1756335;81;21093;-61
2022/02/20 03:34:22;;;;;;;10.15;4.28;;;;;;;1.27;61.72;97801.25;1756078;81;20983;-61
2022/02/20 03:36:51;;;;;;;8.83;4.55;;;;;;;1.28;61.86;97808.92;1756234;81;21518;-64
2022/02/20 03:39:20;;;;;;;9.43;4.95;;;;;;;1.28;61.55;97801.52;1754875;81;20896;-66
2022/02/20 03:41:47;;;;;;;8.30;4.25;;;;;;;1.27;61.63;97796.75;1757968;81;21416;-61
2022/02/20 03:44:15;;;;;;;10.88;4.70;;;;;;;1.26;61.57;97807.04;1756188;81;21052;-62
2022/02/20 03:46:47;;;;;;;9.65;4.78;;;;;;;1.27;61.42;97792.02;1756348;81;20884;-61
2022/02/20 03:49:14;;;;;;;11.85;4.25;;;;;;;1.28;61.22;97798.36;1758522;81;20986;-64
2022/02/20 03:51:45;;;;;;;12.40;4.95;;;;;;;1.28;61.14;97783.85;1756157;81;20924;-61
2022/02/20 03:54:11;;;;;;;8.30;4.60;;;;;;;1.28;61.05;97789.64;1758751;81;20983;-62
2022/02/20 03:56:38;;;;;;;10.78;4.62;;;;;;;1.28;60.77;97781.73;1758547;81;21058;-63
2022/02/20 03:59:07;;;;;;;9.48;4.20;;;;;;;1.28;60.85;97779.89;1757835;80;20920;-66
2022/02/20 04:01:33;;;;;;;10.60;4.65;;;;;;;1.27;60.73;97778.28;1758812;81;20923;-63
2022/02/20 04:04:00;;;;;;;8.85;4.17;;;;;;;1.26;60.68;97775.89;1758719;81;21383;-65
2022/02/20 04:06:27;;;;;;;10.38;4.67;;;;;;;1.26;60.65;97768.78;1758893;81;21380;-66
2022/02/20 04:08:56;;;;;;;9.58;4.28;;;;;;;1.25;60.72;97772.44;1757523;81;21080;-65
2022/02/20 04:11:23;;;;;;;9.78;4.50;;;;;;;1.25;60.76;97776.91;1758575;81;20979;-61
2022/02/20 04:13:51;;;;;;;9.55;4.20;;;;;;;1.24;60.59;97772.69;1758348;81;21506;-65
2022/02/20 04:16:21;;;;;;;9.28;4.30;;;;;;;1.23;60.67;97777.16;1722094;83;20890;-66
2022/02/20 04:18:50;;;;;;;9.80;4.62;;;;;;;1.23;60.71;97766.61;1706550;84;20896;-65
2022/02/20 04:21:21;;;;;;;11.65;4.85;;;;;;;1.22;60.61;97774.77;1722243;83;21138;-62
2022/02/20 04:23:50;;;;;;;12.15;4.45;;;;;;;1.21;60.48;97770.00;1706490;84;20924;-66
2022/02/20 04:26:16;;;;;;;7.62;4.10;;;;;;;1.22;60.51;97766.85;1722451;83;20841;-64
2022/02/20 04:28:45;;;;;;;10.53;4.53;;;;;;;1.21;60.35;97765.23;1706853;84;20980;-64
2022/02/20 04:31:11;;;;;;;11.97;4.55;;;;;;;1.20;60.37;97761.79;1722605;83;20939;-63
2022/02/20 04:33:38;;;;;;;10.65;4.12;;;;;;;1.20;60.39;97774.98;1706679;84;21131;-62
2022/02/20 04:36:06;;;;;;;10.68;3.77;;;;;;;1.22;60.20;97762.89;1722447;83;20928;-65
2022/02/20 04:38:32;;;;;;;8.23;3.80;;;;;;;1.24;60.24;97764.27;1706568;84;20932;-64
2022/02/20 04:41:01;;;;;;;10.82;4.05;;;;;;;1.23;60.14;97767.92;1721999;81;21483;-66
2022/02/20 04:43:31;;;;;;;10.55;4.22;;;;;;;1.21;60.17;97759.45;1722788;83;20977;-65
2022/02/20 04:46:00;;;;;;;9.18;4.10;;;;;;;1.19;60.13;97752.30;1755923;81;21131;-64
2022/02/20 04:48:27;;;;;;;12.33;3.90;;;;;;;1.17;60.04;97753.05;1756216;81;20915;-65
2022/02/20 04:50:54;;;;;;;9.50;4.00;;;;;;;1.16;60.05;97758.03;1756282;81;21395;-63
2022/02/20 04:53:22;;;;;;;7.08;3.47;;;;;;;1.17;60.12;97764.92;1756075;81;20896;-65
2022/02/20 04:55:50;;;;;;;13.58;4.17;;;;;;;1.16;60.11;97771.22;1756409;81;20920;-66
2022/02/20 04:58:17;;;;;;;13.03;4.12;;;;;;;1.16;60.23;97771.22;1756189;81;21110;-63
2022/02/20 05:00:44;;;;;;;8.90;3.92;;;;;;;1.17;60.09;97760.97;1756251;81;21458;-62
2022/02/20 05:03:16;;;;;;;11.35;4.33;;;;;;;1.16;60.21;97759.35;1756124;81;20883;-64
2022/02/20 05:06:01;;;;;;;10.00;3.55;;;;;;;1.14;60.12;97764.06;1756236;81;20924;-66
2022/02/20 05:08:33;;;;;;;9.95;3.90;;;;;;;1.13;60.10;97767.73;1754325;81;21435;-65
2022/02/20 05:10:59;;;;;;;10.65;3.80;;;;;;;1.12;60.05;97763.50;1756079;81;21090;-66
2022/02/20 05:13:27;;;;;;;9.78;4.22;;;;;;;1.12;60.01;97760.05;1756028;81;20840;-63
2022/02/20 05:15:54;;;;;;;9.68;4.12;;;;;;;1.12;60.24;97761.38;1756102;81;20967;-67
2022/02/20 05:18:21;;;;;;;8.95;4.53;;;;;;;1.09;60.32;97748.14;1756073;81;21011;-61
2022/02/20 05:20:54;;;;;;;7.90;4.10;;;;;;;1.07;60.51;97750.22;1756115;81;20939;-62
2022/02/20 05:23:24;;;;;;;8.28;4.03;;;;;;;1.06;60.31;97762.33;1756110;81;21703;-65
2022/02/20 05:25:51;;;;;;;7.92;3.72;;;;;;;1.04;60.25;97759.10;1756294;81;21530;-66
2022/02/20 05:28:18;;;;;;;11.60;4.03;;;;;;;1.03;60.16;97755.69;1756293;81;21427;-65
2022/02/20 05:30:46;;;;;;;7.95;3.92;;;;;;;1.03;59.91;97753.05;1756319;81;21352;-63
2022/02/20 05:33:14;;;;;;;9.20;4.72;;;;;;;1.06;59.91;97757.83;1755571;81;20952;-62
2022/02/20 05:35:41;;;;;;;8.90;3.95;;;;;;;1.05;59.92;97749.66;1756169;81;21507;-62
2022/02/20 05:38:10;;;;;;;10.80;4.20;;;;;;;1.07;59.64;97749.41;1724342;81;20892;-61
2022/02/20 05:40:37;;;;;;;9.55;4.20;;;;;;;1.11;59.52;97747.38;1756352;81;20853;-64
2022/02/20 05:43:06;;;;;;;14.10;4.22;;;;;;;1.13;59.55;97746.63;1755891;81;21373;-62
2022/02/20 05:45:33;;;;;;;7.87;4.00;;;;;;;1.15;59.25;97756.45;1756595;81;20995;-63
2022/02/20 05:48:06;;;;;;;9.18;3.87;;;;;;;1.18;59.06;97739.31;1754920;81;21087;-62
2022/02/20 05:50:32;;;;;;;10.20;4.20;;;;;;;1.21;59.16;97744.94;1756522;81;20939;-62
2022/02/20 05:52:59;;;;;;;7.50;3.67;;;;;;;1.23;58.96;97740.22;1756528;81;20936;-64
2022/02/20 05:55:28;;;;;;;9.98;4.22;;;;;;;1.25;58.94;97738.14;1756182;81;20916;-66
2022/02/20 05:57:56;;;;;;;9.40;3.80;;;;;;;1.28;58.91;97744.27;1756235;81;21495;-62
2022/02/20 06:00:29;;;;;;;12.82;4.45;;;;;;;1.31;59.16;97739.85;1721087;83;20910;-64
2022/02/20 06:03:01;;;;;;;9.13;4.33;;;;;;;1.34;58.73;97745.95;1756248;81;20901;-60
2022/02/20 06:05:29;;;;;;;10.15;3.95;;;;;;;1.38;58.75;97744.46;1754224;81;20860;-64
2022/02/20 06:07:58;;;;;;;9.60;3.72;;;;;;;1.42;58.55;97736.86;1750810;81;21396;-65
2022/02/20 06:10:27;;;;;;;8.78;3.80;;;;;;;1.50;58.40;97746.23;1754376;81;20876;-61
2022/02/20 06:13:12;;;;;;;9.38;3.87;;;;;;;1.57;58.15;97740.28;1756542;81;21910;-61
2022/02/20 06:15:49;;;;;;;10.85;3.70;;;;;;;1.61;57.94;97740.07;1753526;81;20928;-61
2022/02/20 06:18:19;;;;;;;10.65;3.62;;;;;;;1.68;57.80;97732.80;1755806;81;21368;-63
2022/02/20 06:20:51;;;;;;;11.50;3.87;;;;;;;1.76;57.54;97735.05;1754789;81;20967;-62
2022/02/20 06:23:23;;;;;;;14.53;5.53;;;;;;;1.82;56.82;97743.32;1754317;81;21458;-64
2022/02/20 06:25:55;;;;;;;13.30;5.50;;;;;;;1.91;56.91;97741.88;1755451;81;21124;-64
2022/02/20 06:28:24;;;;;;;12.33;5.80;;;;;;;2.00;57.05;97741.78;1756123;81;21499;-62
2022/02/20 06:30:51;;;;;;;10.40;5.33;;;;;;;2.08;57.01;97745.31;1756148;81;20991;-65
2022/02/20 06:33:25;;;;;;;22.62;10.00;;;;;;;2.15;56.67;97745.95;1756310;81;21314;-64
2022/02/20 06:35:53;;;;;;;75.65;30.52;;;;;;;2.25;56.90;97746.62;1756512;81;21423;-60
2022/02/20 06:38:22;;;;;;;47.08;20.85;;;;;;;2.28;57.78;97737.70;1756174;81;20976;-65
2022/02/20 06:40:51;;;;;;;61.30;34.88;;;;;;;2.31;58.32;97735.87;1756102;81;21018;-64
2022/02/20 06:43:20;;;;;;;33.42;20.48;;;;;;;2.31;58.65;97739.83;1758348;81;21312;-62
2022/02/20 06:45:48;;;;;;;131.25;63.50;;;;;;;2.28;58.84;97736.89;1757594;81;20920;-61
2022/02/20 06:48:24;;;;;;;54.03;35.05;;;;;;;2.27;58.82;97737.41;1757838;81;20893;-66
2022/02/20 06:50:58;;;;;;;90.15;55.75;;;;;;;2.30;58.94;97745.37;1757544;81;21788;-60
2022/02/20 06:53:36;;;;;;;59.53;34.40;;;;;;;2.33;58.90;97742.25;1755708;81;20912;-63
2022/02/20 06:56:22;;;;;;;28.23;15.45;;;;;;;2.39;58.72;97744.72;1755712;81;20993;-62
2022/02/20 06:58:49;;;;;;;20.27;10.38;;;;;;;2.48;58.59;97744.57;1758952;81;20884;-61
2022/02/20 07:01:16;;;;;;;46.68;19.30;;;;;;;2.59;58.24;97741.55;1758678;81;20888;-62
2022/02/20 07:03:42;;;;;;;27.95;11.53;;;;;;;2.66;57.91;97744.27;1758790;81;21775;-60
2022/02/20 07:06:10;;;;;;;129.93;39.18;;;;;;;2.70;57.62;97738.78;1758617;81;20885;-62
2022/02/20 07:08:37;;;;;;;108.25;40.00;;;;;;;2.73;57.74;97726.38;1758677;81;20892;-61
2022/02/20 07:11:05;;;;;;;73.60;28.38;;;;;;;2.82;57.81;97735.21;1758617;81;20971;-61
2022/02/20 07:13:34;;;;;;;55.67;21.65;;;;;;;2.89;57.90;97737.14;1758574;81;20925;-63
2022/02/20 07:16:00;;;;;;;33.55;14.13;;;;;;;2.94;57.42;97739.86;1758796;81;21813;-65
2022/02/20 07:18:27;;;;;;;14.25;7.25;;;;;;;2.98;57.42;97743.08;1758510;81;20912;-65
2022/02/20 07:20:53;;;;;;;32.73;14.33;;;;;;;3.08;56.75;97742.39;1758773;81;20940;-65
2022/02/20 07:23:20;;;;;;;36.25;16.55;;;;;;;3.19;56.57;97737.48;1758660;81;20924;-66
2022/02/20 07:25:48;;;;;;;48.63;23.95;;;;;;;3.29;56.32;97731.78;1758823;81;36620;-64
2022/02/20 07:28:15;;;;;;;27.60;13.20;;;;;;;3.43;55.96;97730.84;1758556;81;21080;-63
2022/02/20 07:30:42;;;;;;;23.05;10.95;;;;;;;3.53;55.53;97728.30;1758530;81;20961;-61
2022/02/20 07:33:11;;;;;;;13.83;7.12;;;;;;;3.62;55.15;97732.09;1758563;81;21418;-60
2022/02/20 07:35:37;;;;;;;15.30;8.23;;;;;;;3.68;54.39;97738.20;1758540;81;20888;-61
2022/02/20 07:38:05;;;;;;;16.70;8.53;;;;;;;3.70;53.89;97737.45;1758633;81;20987;-64
2022/02/20 07:40:34;;;;;;;16.70;8.33;;;;;;;3.66;53.87;97742.44;1758521;81;21124;-60
2022/02/20 07:43:00;;;;;;;18.80;10.50;;;;;;;3.62;53.90;97745.33;1760694;81;21439;-64
2022/02/20 07:45:27;;;;;;;15.88;6.70;;;;;;;3.58;53.88;97735.48;1761875;81;20888;-65
2022/02/20 07:47:59;;;;;;;14.70;8.58;;;;;;;3.57;53.97;97748.44;1761870;81;20940;-65
2022/02/20 07:50:35;;;;;;;15.72;9.05;;;;;;;3.60;53.94;97745.30;1761771;81;20923;-65
2022/02/20 07:53:04;;;;;;;20.52;10.32;;;;;;;3.61;53.81;97750.34;1743747;81;21082;-64
2022/02/20 07:55:32;;;;;;;15.98;8.80;;;;;;;3.66;53.84;97749.06;1743836;81;21868;-63
2022/02/20 07:58:04;;;;;;;16.32;8.88;;;;;;;3.72;53.66;97748.05;1743703;82;20928;-63
2022/02/20 08:00:32;;;;;;;22.02;9.48;;;;;;;3.76;53.82;97738.56;1743682;81;21460;-63
2022/02/20 08:03:00;;;;;;;26.55;13.45;;;;;;;3.81;53.49;97745.23;1743627;82;20901;-61
2022/02/20 08:05:27;;;;;;;21.37;9.90;;;;;;;3.88;53.57;97741.84;1743677;82;21112;-64
2022/02/20 08:07:55;;;;;;;25.92;12.53;;;;;;;3.98;53.39;97739.80;1743652;81;21519;-65
2022/02/20 08:10:22;;;;;;;21.75;9.70;;;;;;;4.07;53.16;97732.42;1743557;81;20976;-60
2022/02/20 08:12:50;;;;;;;21.65;9.20;;;;;;;4.11;53.05;97724.25;1743676;82;20905;-64
2022/02/20 08:15:18;;;;;;;18.37;8.80;;;;;;;4.13;53.01;97728.77;1743616;82;20881;-64
2022/02/20 08:17:47;;;;;;;14.13;7.30;;;;;;;4.13;52.51;97719.48;1743688;82;21113;-61
2022/02/20 08:20:16;;;;;;;10.58;5.53;;;;;;;4.08;52.10;97714.67;1743467;82;21067;-63
2022/02/20 08:22:43;;;;;;;11.40;5.78;;;;;;;4.05;52.40;97721.28;1743588;82;20981;-64
2022/02/20 08:25:10;;;;;;;9.80;4.97;;;;;;;4.08;52.76;97716.80;1743894;82;20936;-64
2022/02/20 08:27:37;;;;;;;14.55;6.03;;;;;;;4.18;52.17;97712.09;1743698;82;21049;-63
2022/02/20 08:30:08;;;;;;;11.22;5.28;;;;;;;4.30;52.24;97717.20;1743569;82;21072;-64
2022/02/20 08:32:35;;;;;;;12.37;5.42;;;;;;;4.38;51.46;97711.42;1743630;82;20940;-64
2022/02/20 08:35:08;;;;;;;10.25;5.70;;;;;;;4.38;51.78;97707.45;1743648;82;20945;-61
2022/02/20 08:37:37;;;;;;;11.30;4.75;;;;;;;4.45;51.61;97702.71;1743683;82;21096;-59
2022/02/20 08:40:05;;;;;;;12.28;6.30;;;;;;;4.60;51.15;97704.09;1743954;82;21483;-64
2022/02/20 08:42:31;;;;;;;10.45;5.00;;;;;;;4.71;50.98;97709.73;1743700;82;21880;-66
2022/02/20 08:44:58;;;;;;;8.95;4.58;;;;;;;4.76;50.30;97709.73;1743892;82;20881;-64
2022/02/20 08:47:25;;;;;;;9.35;4.60;;;;;;;4.75;50.29;97714.78;1743585;82;20932;-63
2022/02/20 08:49:52;;;;;;;7.83;3.92;;;;;;;4.69;50.25;97700.69;1743595;82;20972;-65
2022/02/20 08:52:19;;;;;;;8.68;4.78;;;;;;;4.63;49.77;97699.61;1743561;82;20938;-67
2022/02/20 08:54:47;;;;;;;9.63;4.60;;;;;;;4.56;50.15;97693.73;1743885;81;21385;-65
2022/02/20 08:57:13;;;;;;;13.98;5.42;;;;;;;4.52;50.27;97701.95;1743602;82;20976;-62
2022/02/20 08:59:41;;;;;;;7.58;4.15;;;;;;;4.49;50.38;97704.59;1743790;81;21848;-61
2022/02/20 09:02:09;;;;;;;8.88;4.53;;;;;;;4.51;50.24;97699.02;1743846;82;20904;-63
2022/02/20 09:04:37;;;;;;;9.18;4.55;;;;;;;4.52;50.17;97693.44;1743589;82;20932;-62
2022/02/20 09:07:04;;;;;;;9.25;4.67;;;;;;;4.52;49.85;97693.44;1743852;82;21829;-66
2022/02/20 09:09:31;;;;;;;9.35;4.42;;;;;;;4.52;50.06;97692.12;1743604;82;20964;-66
2022/02/20 09:11:58;;;;;;;8.58;4.47;;;;;;;4.54;50.24;97685.25;1743554;82;20853;-65
2022/02/20 09:14:25;;;;;;;10.75;5.30;;;;;;;4.58;50.24;97679.69;1743643;82;20972;-60
2022/02/20 09:16:51;;;;;;;9.03;4.67;;;;;;;4.60;50.86;97670.94;1743848;82;21593;-60
2022/02/20 09:19:18;;;;;;;11.15;4.87;;;;;;;4.63;50.72;97663.80;1743830;82;21173;-61
2022/02/20 09:21:45;;;;;;;9.00;3.98;;;;;;;4.65;50.69;97664.33;1743965;82;21491;-63
2022/02/20 09:24:12;;;;;;;11.90;4.62;;;;;;;4.65;50.18;97666.45;1743811;82;21032;-62
2022/02/20 09:26:38;;;;;;;7.87;4.22;;;;;;;4.67;50.48;97665.66;1743793;82;20941;-64
2022/02/20 09:29:06;;;;;;;8.05;4.30;;;;;;;4.68;50.20;97664.62;1744085;82;20980;-65
2022/02/20 09:31:32;;;;;;;9.23;4.10;;;;;;;4.69;50.49;97668.05;1716880;82;21093;-66
2022/02/20 09:33:59;;;;;;;8.00;4.33;;;;;;;4.67;50.57;97666.19;1743747;82;20881;-64
2022/02/20 09:36:27;;;;;;;12.80;6.42;;;;;;;4.66;50.73;97669.36;1743805;82;20889;-60
2022/02/20 09:38:55;;;;;;;9.98;4.92;;;;;;;4.67;50.89;97660.87;1743782;82;21535;-65
2022/02/20 09:41:28;;;;;;;10.10;4.53;;;;;;;4.67;50.87;97658.23;1743723;82;20988;-64
2022/02/20 09:43:56;;;;;;;10.08;4.45;;;;;;;4.65;50.75;97655.04;1726657;82;21102;-64
2022/02/20 09:46:23;;;;;;;7.97;3.85;;;;;;;4.62;50.65;97660.86;1727306;83;21455;-65
2022/02/20 09:48:54;;;;;;;9.38;3.45;;;;;;;4.58;50.84;97649.98;1723088;83;20888;-63
2022/02/20 09:51:21;;;;;;;14.45;4.55;;;;;;;4.56;50.70;97652.10;1727251;83;20987;-65
2022/02/20 09:53:54;;;;;;;8.35;3.77;;;;;;;4.54;50.58;97645.46;1722943;83;20900;-66
2022/02/20 09:56:25;;;;;;;8.00;3.58;;;;;;;4.54;50.66;97640.95;1726998;83;21131;-63
2022/02/20 09:58:52;;;;;;;9.43;3.70;;;;;;;4.54;50.44;97646.78;1722727;83;20970;-60
2022/02/20 10:01:20;;;;;;;9.23;4.05;;;;;;;4.51;50.59;97631.38;1726907;83;20924;-60
2022/02/20 10:03:48;;;;;;;10.70;6.00;;;;;;;4.51;50.83;97632.71;1722897;82;20931;-65
2022/02/20 10:06:20;;;;;;;9.18;4.70;;;;;;;4.53;51.32;97621.31;1727053;83;20952;-61
2022/02/20 10:08:52;;;;;;;13.83;6.58;;;;;;;4.55;51.04;97628.47;1722825;82;21104;-61
2022/02/20 10:11:27;;;;;;;11.55;6.60;;;;;;;4.53;50.82;97627.94;1726555;83;20904;-66
2022/02/20 10:14:06;;;;;;;15.98;6.33;;;;;;;4.52;50.86;97626.36;1722990;81;20919;-62
2022/02/20 10:16:33;;;;;;;10.03;4.17;;;;;;;4.46;51.42;97622.87;1727063;83;20955;-68
2022/02/20 10:19:01;;;;;;;8.08;3.92;;;;;;;4.43;51.61;97626.05;1722786;83;20927;-65
2022/02/20 10:21:50;;;;;;;7.00;3.65;;;;;;;4.39;51.71;97610.91;1726981;83;20901;-66
2022/02/20 10:24:35;;;;;;;10.48;3.90;;;;;;;4.32;51.39;97611.16;1722740;83;20908;-65
2022/02/20 10:27:22;;;;;;;10.58;4.78;;;;;;;4.25;51.46;97611.12;1723040;83;21024;-62
2022/02/20 10:30:15;;;;;;;7.70;4.78;;;;;;;4.20;51.56;97599.16;1720821;83;20872;-65
2022/02/20 10:32:44;;;;;;;10.65;4.45;;;;;;;4.17;51.83;97590.42;1726942;83;21059;-63
2022/02/20 10:35:15;;;;;;;11.05;5.62;;;;;;;4.17;51.91;97585.89;1722992;83;21830;-60
2022/02/20 10:37:43;;;;;;;13.75;5.58;;;;;;;4.18;52.21;97581.40;1726859;83;20971;-61
2022/02/20 10:40:30;;;;;;;10.88;5.05;;;;;;;4.20;52.24;97575.30;1723049;81;20927;-66
2022/02/20 10:42:59;;;;;;;17.07;7.10;;;;;;;4.21;52.17;97571.09;1726888;83;21447;-63
2022/02/20 10:45:35;;;;;;;14.78;6.70;;;;;;;4.23;52.02;97561.54;1722795;83;21494;-63
2022/02/20 10:48:04;;;;;;;18.17;6.35;;;;;;;4.25;51.90;97562.08;1727012;83;21123;-64
2022/02/20 10:50:32;;;;;;;9.80;4.55;;;;;;;4.27;51.97;97544.05;1722680;82;20911;-64
2022/02/20 10:53:19;;;;;;;11.38;5.15;;;;;;;4.29;51.83;97543.25;1726892;83;20857;-65
2022/02/20 10:55:47;;;;;;;;;;;;;;;4.32;52.06;97538.77;1725558;82;20896;-62
2022/02/20 10:58:28;;;;;;;6.25;3.85;;;;;;;4.36;51.31;97539.31;1727381;83;20103;-62
2022/02/20 11:00:58;;;;;;;10.90;4.42;;;;;;;4.37;51.18;97530.83;1722855;83;21118;-66
2022/02/20 11:03:28;;;;;;;9.63;3.80;;;;;;;4.41;50.95;97527.91;1726836;83;21460;-64
2022/02/20 11:05:56;;;;;;;8.20;3.72;;;;;;;4.43;50.70;97529.80;1722544;82;20868;-65
2022/02/20 11:08:26;;;;;;;8.18;3.67;;;;;;;4.50;50.44;97531.67;1727043;83;21416;-61
2022/02/20 11:10:54;;;;;;;7.37;3.27;;;;;;;4.56;49.99;97520.00;1722746;83;20974;-64
2022/02/20 11:13:23;;;;;;;13.00;4.00;;;;;;;4.59;50.01;97507.00;1722823;83;20970;-61
2022/02/20 11:15:55;;;;;;;8.75;3.95;;;;;;;4.63;49.74;97501.45;1756193;81;20889;-60
2022/02/20 11:18:21;;;;;;;10.03;4.70;;;;;;;4.69;49.82;97500.91;1755667;81;20929;-64
2022/02/20 11:20:52;;;;;;;8.43;3.77;;;;;;;4.76;49.75;97505.42;1756240;81;20947;-62
2022/02/20 11:23:26;;;;;;;10.75;3.12;;;;;;;4.84;49.49;97500.93;1756286;81;20916;-65
2022/02/20 11:25:55;;;;;;;10.50;3.30;;;;;;;4.92;48.96;97495.63;1756246;81;21081;-62
2022/02/20 11:28:22;;;;;;;6.47;3.10;;;;;;;4.99;48.71;97498.29;1756443;81;20955;-61
2022/02/20 11:30:51;;;;;;;7.85;2.85;;;;;;;5.05;48.61;97499.87;1756286;81;20896;-65
2022/02/20 11:33:17;;;;;;;7.53;2.77;;;;;;;5.12;48.12;97484.99;1756215;81;20947;-65
2022/02/20 11:35:48;;;;;;;8.08;2.92;;;;;;;5.14;48.02;97498.27;1756226;81;21550;-65
2022/02/20 11:38:17;;;;;;;8.93;3.40;;;;;;;5.16;48.08;97488.72;1756618;81;21094;-62
2022/02/20 11:41:02;;;;;;;6.97;2.95;;;;;;;5.19;48.24;97494.28;1756180;81;21479;-61
2022/02/20 11:43:45;;;;;;;8.15;3.67;;;;;;;5.23;47.60;97486.03;1742398;81;21420;-60
2022/02/20 11:46:20;;;;;;;11.55;3.02;;;;;;;5.29;48.09;97481.00;1756242;81;21852;-60
2022/02/20 11:49:16;;;;;;;10.58;3.58;;;;;;;5.33;47.50;97465.31;1756312;81;20908;-65